Time;durP1;ratioP1;P1;durP2;ratioP2;P2;SDS_P1;SDS_P2;PMS_P1;PMS_P2;Temp;Humidity;BMP_temperature;BMP_pressure;BME280_temperature;BME280_humidity;BME280_pressure;Samples;Min_cycle;Max_cycle;Signal;HPM_P1;HPM_P2
2022/08/27 00:00:18;;;;;;;7.30;2.70;;;17.20;96.20;;;;;;5031430;28;20059;-47
2022/08/27 00:02:44;;;;;;;5.75;2.88;;;17.10;96.30;;;;;;5031688;28;20093;-51
2022/08/27 00:05:13;;;;;;;6.30;2.83;;;17.00;96.60;;;;;;5027116;28;20141;-51
2022/08/27 00:07:40;;;;;;;8.20;3.00;;;17.00;96.40;;;;;;5013156;28;20470;-47
2022/08/27 00:10:08;;;;;;;7.50;2.80;;;17.00;96.50;;;;;;5030374;28;20135;-44
2022/08/27 00:12:35;;;;;;;7.22;3.00;;;16.90;96.40;;;;;;5014184;28;20080;-49
2022/08/27 00:15:02;;;;;;;8.38;2.95;;;16.90;96.50;;;;;;5014464;28;20124;-49
2022/08/27 00:17:29;;;;;;;4.93;2.75;;;16.90;96.60;;;;;;5003578;28;20061;-51
2022/08/27 00:19:55;;;;;;;6.35;2.83;;;16.80;96.60;;;;;;5030321;28;20056;-43
2022/08/27 00:22:23;;;;;;;8.02;3.15;;;16.80;96.60;;;;;;5031439;28;20120;-47
2022/08/27 00:24:50;;;;;;;14.60;3.65;;;16.80;96.70;;;;;;5012293;28;20128;-48
2022/08/27 00:27:17;;;;;;;8.27;3.20;;;16.80;96.80;;;;;;5032314;28;20461;-49
2022/08/27 00:29:44;;;;;;;8.43;3.25;;;16.80;96.80;;;;;;5014170;28;20136;-43
2022/08/27 00:32:11;;;;;;;6.90;3.00;;;16.80;96.80;;;;;;5035301;28;20057;-47
2022/08/27 00:34:37;;;;;;;8.88;3.20;;;16.80;96.80;;;;;;5031264;28;20096;-49
2022/08/27 00:37:05;;;;;;;6.88;3.05;;;16.80;96.80;;;;;;5032013;28;20151;-52
2022/08/27 00:39:33;;;;;;;9.00;3.03;;;16.80;96.80;;;;;;5014815;28;20061;-49
2022/08/27 00:42:00;;;;;;;12.60;4.07;;;16.70;97.10;;;;;;5013254;28;20132;-50
2022/08/27 00:44:27;;;;;;;7.55;3.20;;;16.70;97.00;;;;;;5014531;28;20049;-50
2022/08/27 00:46:55;;;;;;;8.30;3.05;;;16.70;97.10;;;;;;5031101;28;20069;-51
2022/08/27 00:49:24;;;;;;;8.35;3.75;;;16.70;97.00;;;;;;5034411;28;20128;-50
2022/08/27 00:51:56;;;;;;;11.60;3.30;;;16.70;97.00;;;;;;5035441;28;20115;-50
2022/08/27 00:54:23;;;;;;;9.35;3.40;;;16.60;97.10;;;;;;5034156;28;20087;-47
2022/08/27 00:56:51;;;;;;;5.18;3.20;;;16.60;97.10;;;;;;5033494;28;20080;-51
2022/08/27 00:59:17;;;;;;;8.20;3.90;;;16.60;97.30;;;;;;5034791;28;20045;-49
2022/08/27 01:04:26;;;;;;;10.18;3.55;;;16.60;97.30;;;;;;5015445;28;20489;-46
2022/08/27 01:06:52;;;;;;;7.10;3.08;;;16.60;97.40;;;;;;5032951;28;20132;-48
2022/08/27 01:09:19;;;;;;;8.88;3.78;;;16.60;97.20;;;;;;5034234;28;20132;-50
2022/08/27 01:11:46;;;;;;;7.30;2.83;;;16.70;97.30;;;;;;5034093;28;20049;-47
2022/08/27 01:14:14;;;;;;;6.07;3.20;;;16.60;97.30;;;;;;5012404;28;20053;-47
2022/08/27 01:16:43;;;;;;;9.45;3.78;;;16.70;97.30;;;;;;5015465;28;20504;-46
2022/08/27 01:19:14;;;;;;;7.47;2.78;;;16.70;97.20;;;;;;5025770;28;20050;-49
2022/08/27 01:21:44;;;;;;;5.90;2.77;;;16.70;97.30;;;;;;5017694;28;20108;-46
2022/08/27 01:24:30;;;;;;;6.53;2.95;;;16.60;97.30;;;;;;5035641;28;20484;-50
2022/08/27 01:26:57;;;;;;;5.18;2.70;;;16.60;97.10;;;;;;5035311;28;20136;-51
2022/08/27 01:29:23;;;;;;;8.98;3.17;;;16.60;97.10;;;;;;5017793;28;20144;-48
2022/08/27 01:31:50;;;;;;;8.57;3.30;;;16.60;97.20;;;;;;5030601;28;20137;-48
2022/08/27 01:34:17;;;;;;;7.32;2.97;;;16.60;97.20;;;;;;5032672;28;20132;-46
2022/08/27 01:36:44;;;;;;;5.78;2.67;;;16.60;97.20;;;;;;5034975;28;20152;-49
2022/08/27 01:39:10;;;;;;;5.05;2.53;;;16.60;97.30;;;;;;5035047;28;20468;-47
2022/08/27 01:41:38;;;;;;;6.22;3.15;;;16.60;97.30;;;;;;5032585;28;20466;-48
2022/08/27 01:44:05;;;;;;;10.05;3.30;;;16.50;97.20;;;;;;5034556;28;20084;-46
2022/08/27 01:46:32;;;;;;;6.78;2.70;;;16.50;97.40;;;;;;5034610;28;20466;-48
2022/08/27 01:48:59;;;;;;;7.90;3.15;;;16.50;97.20;;;;;;5017102;28;20509;-45
2022/08/27 01:51:25;;;;;;;5.07;2.78;;;16.50;97.40;;;;;;5034055;28;20085;-45
2022/08/27 01:53:52;;;;;;;10.43;3.38;;;16.50;97.30;;;;;;5015121;28;20099;-46
2022/08/27 01:56:19;;;;;;;6.90;2.80;;;16.50;97.30;;;;;;5016622;28;20076;-49
2022/08/27 01:58:47;;;;;;;7.28;2.70;;;16.40;97.20;;;;;;5015443;28;20061;-48
2022/08/27 02:01:15;;;;;;;8.50;3.55;;;16.40;97.20;;;;;;5034353;28;20132;-50
2022/08/27 02:03:41;;;;;;;6.57;3.50;;;16.30;97.30;;;;;;5034614;28;20061;-48
2022/08/27 02:06:10;;;;;;;8.30;3.08;;;16.30;97.40;;;;;;5034239;28;20127;-49
2022/08/27 02:08:36;;;;;;;7.05;3.53;;;16.30;97.30;;;;;;5015544;28;20134;-38
2022/08/27 02:11:03;;;;;;;6.53;2.60;;;16.30;97.40;;;;;;5033763;28;20087;-49
2022/08/27 02:13:30;;;;;;;8.63;3.30;;;16.30;97.30;;;;;;5034199;28;20103;-50
2022/08/27 02:15:58;;;;;;;7.63;3.53;;;16.30;97.30;;;;;;5033963;28;20108;-49
2022/08/27 02:18:25;;;;;;;4.85;2.85;;;16.20;97.40;;;;;;5033563;28;20053;-48
2022/08/27 02:20:52;;;;;;;8.50;3.55;;;16.20;97.30;;;;;;5034018;28;20132;-51
2022/08/27 02:23:19;;;;;;;6.15;3.10;;;16.20;97.40;;;;;;5034135;28;20136;-51
2022/08/27 02:25:46;;;;;;;6.63;3.03;;;16.20;97.30;;;;;;5033967;28;20143;-48
2022/08/27 02:28:13;;;;;;;5.13;3.22;;;16.20;97.30;;;;;;5011529;28;20054;-46
2022/08/27 02:30:40;;;;;;;8.85;4.00;;;16.20;97.30;;;;;;5021657;28;20096;-48
2022/08/27 02:33:08;;;;;;;6.25;3.03;;;16.20;97.50;;;;;;5034028;28;20049;-48
2022/08/27 02:35:37;;;;;;;5.97;3.60;;;16.10;97.60;;;;;;5033898;28;20129;-46
2022/08/27 02:38:04;;;;;;;5.85;2.88;;;16.10;97.60;;;;;;5033147;28;20555;-48
2022/08/27 02:40:31;;;;;;;9.95;3.53;;;16.10;97.90;;;;;;5033867;28;20045;-50
2022/08/27 02:42:58;;;;;;;8.43;3.67;;;16.10;97.50;;;;;;5033572;28;20466;-47
2022/08/27 02:45:25;;;;;;;7.38;3.28;;;16.10;97.60;;;;;;5033539;28;20065;-48
2022/08/27 02:47:52;;;;;;;7.45;3.55;;;16.10;97.60;;;;;;5032429;28;20489;-47
2022/08/27 02:50:21;;;;;;;9.93;3.78;;;16.10;97.70;;;;;;5033660;28;20049;-51
2022/08/27 02:52:47;;;;;;;8.50;3.88;;;16.10;97.70;;;;;;5016067;28;20089;-49
2022/08/27 02:55:15;;;;;;;8.88;3.90;;;16.00;97.80;;;;;;5016058;28;20057;-47
2022/08/27 02:57:42;;;;;;;9.98;3.83;;;16.00;97.80;;;;;;5015773;28;20084;-48
2022/08/27 03:00:10;;;;;;;7.47;3.40;;;16.00;97.90;;;;;;5032877;28;20046;-47
2022/08/27 03:02:37;;;;;;;6.25;3.17;;;16.00;97.80;;;;;;5016039;28;20056;-49
2022/08/27 03:05:05;;;;;;;8.18;3.47;;;16.00;97.70;;;;;;5033399;28;20498;-51
2022/08/27 03:07:33;;;;;;;5.65;3.20;;;16.00;97.70;;;;;;5033181;28;20053;-46
2022/08/27 03:10:00;;;;;;;12.80;3.72;;;16.00;98.00;;;;;;5032462;28;20099;-46
2022/08/27 03:12:26;;;;;;;8.70;3.40;;;16.00;97.80;;;;;;5033112;28;20137;-48
2022/08/27 03:14:53;;;;;;;8.25;3.58;;;16.00;97.70;;;;;;5015421;28;20088;-49
2022/08/27 03:20:06;;;;;;;7.30;3.60;;;16.00;97.80;;;;;;5032372;28;20045;-50
2022/08/27 03:22:34;;;;;;;8.27;3.60;;;16.00;97.90;;;;;;5033007;28;20488;-46
2022/08/27 03:25:01;;;;;;;6.78;3.65;;;16.00;98.00;;;;;;5015446;28;20135;-50
2022/08/27 03:27:28;;;;;;;6.38;3.60;;;16.00;98.00;;;;;;5015754;28;20079;-46
2022/08/27 03:29:55;;;;;;;6.20;2.97;;;16.00;98.10;;;;;;5014585;28;20141;-48
2022/08/27 03:32:22;;;;;;;6.25;3.35;;;16.00;98.10;;;;;;5032860;28;20128;-50
2022/08/27 03:34:48;;;;;;;6.57;3.42;;;15.90;97.90;;;;;;5032832;28;20107;-48
2022/08/27 03:37:15;;;;;;;6.00;2.83;;;15.90;97.90;;;;;;5032782;28;20085;-50
2022/08/27 03:39:43;;;;;;;6.78;3.42;;;15.90;97.80;;;;;;5032150;28;20446;-46
2022/08/27 03:42:10;;;;;;;6.38;3.30;;;15.90;97.90;;;;;;5015195;28;20053;-49
2022/08/27 03:44:37;;;;;;;5.70;3.25;;;15.90;98.00;;;;;;5031886;28;20080;-49
2022/08/27 03:47:04;;;;;;;10.18;3.40;;;15.80;97.90;;;;;;5014735;28;20168;-50
2022/08/27 03:49:30;;;;;;;6.45;3.22;;;15.80;98.00;;;;;;5032246;28;20120;-49
2022/08/27 03:51:57;;;;;;;9.25;3.70;;;15.70;98.00;;;;;;5015130;28;20091;-52
2022/08/27 03:54:24;;;;;;;7.45;3.70;;;15.80;98.00;;;;;;5032428;28;20500;-51
2022/08/27 03:56:52;;;;;;;6.88;3.17;;;15.70;97.90;;;;;;5031047;28;20053;-47
2022/08/27 03:59:19;;;;;;;8.02;3.63;;;15.70;98.00;;;;;;5032705;28;20140;-50
2022/08/27 04:01:46;;;;;;;7.07;3.20;;;15.70;98.10;;;;;;5032608;28;20132;-48
2022/08/27 04:04:12;;;;;;;5.75;2.90;;;15.60;98.00;;;;;;5032044;28;20065;-51
2022/08/27 04:06:39;;;;;;;7.97;3.42;;;15.60;98.10;;;;;;5032461;28;20053;-46
2022/08/27 04:09:06;;;;;;;4.50;3.08;;;15.60;98.20;;;;;;5032283;28;20052;-50
2022/08/27 04:11:33;;;;;;;7.30;3.88;;;15.60;98.20;;;;;;5032612;28;20136;-49
2022/08/27 04:14:02;;;;;;;8.68;3.38;;;15.60;98.40;;;;;;5014153;28;20141;-46
2022/08/27 04:16:29;;;;;;;8.07;3.45;;;15.60;98.50;;;;;;5032477;28;20453;-45
2022/08/27 04:18:56;;;;;;;6.45;3.08;;;15.60;98.50;;;;;;5032250;28;20557;-48
2022/08/27 04:21:23;;;;;;;8.43;4.28;;;15.60;98.30;;;;;;5033054;28;20140;-48
2022/08/27 04:23:50;;;;;;;5.18;2.97;;;15.60;98.50;;;;;;5006609;28;20062;-50
2022/08/27 04:26:16;;;;;;;5.57;3.03;;;15.60;98.30;;;;;;5016729;28;20085;-47
2022/08/27 04:28:43;;;;;;;6.57;3.65;;;15.60;98.20;;;;;;5016587;28;20137;-47
2022/08/27 04:31:11;;;;;;;8.30;3.28;;;15.70;98.20;;;;;;5010813;28;20132;-50
2022/08/27 04:33:38;;;;;;;5.63;3.47;;;15.70;98.20;;;;;;5017951;28;20141;-50
2022/08/27 04:36:06;;;;;;;9.32;3.28;;;15.60;98.30;;;;;;5036041;28;20390;-49
2022/08/27 04:38:33;;;;;;;9.52;3.60;;;15.60;98.30;;;;;;5035938;28;20132;-47
2022/08/27 04:41:21;;;;;;;6.18;3.05;;;15.60;98.40;;;;;;5035938;28;20136;-49
2022/08/27 04:43:48;;;;;;;5.55;2.88;;;15.60;98.30;;;;;;5035087;28;20053;-48
2022/08/27 04:46:21;;;;;;;7.05;3.63;;;15.60;98.20;;;;;;5017808;28;20405;-46
2022/08/27 04:48:48;;;;;;;5.75;3.20;;;15.60;98.30;;;;;;5018262;28;20136;-50
2022/08/27 04:51:14;;;;;;;7.75;3.80;;;15.60;98.20;;;;;;5018163;28;20436;-47
2022/08/27 04:53:41;;;;;;;8.85;3.60;;;15.60;98.40;;;;;;5035289;28;20080;-45
2022/08/27 04:56:08;;;;;;;9.55;3.67;;;15.60;98.40;;;;;;5035859;28;20096;-49
2022/08/27 04:58:35;;;;;;;8.45;3.78;;;15.60;98.50;;;;;;5017883;28;20065;-49
2022/08/27 05:01:01;;;;;;;9.48;3.70;;;15.60;98.40;;;;;;5018183;28;20057;-46
2022/08/27 05:03:30;;;;;;;8.07;3.40;;;15.60;98.60;;;;;;5017420;28;20152;-51
2022/08/27 05:05:59;;;;;;;10.75;3.50;;;15.60;98.50;;;;;;5035561;28;20125;-44
2022/08/27 05:08:26;;;;;;;9.80;4.00;;;15.60;98.40;;;;;;5035481;28;20041;-43
2022/08/27 05:10:53;;;;;;;8.50;3.85;;;15.50;98.50;;;;;;5035593;28;20093;-50
2022/08/27 05:13:22;;;;;;;9.45;3.75;;;15.50;98.90;;;;;;5034158;28;20046;-46
2022/08/27 05:15:49;;;;;;;4.85;3.40;;;15.50;98.80;;;;;;5017688;28;20045;-45
2022/08/27 05:18:16;;;;;;;7.22;3.15;;;15.50;98.60;;;;;;5035332;28;20053;-47
2022/08/27 05:20:45;;;;;;;10.63;3.78;;;15.50;98.50;;;;;;5035139;28;20108;-47
2022/08/27 05:23:12;;;;;;;6.97;3.80;;;15.50;98.60;;;;;;5034557;28;20131;-47
2022/08/27 05:25:39;;;;;;;10.60;4.00;;;15.50;98.70;;;;;;5035341;28;20483;-51
2022/08/27 05:28:06;;;;;;;9.60;3.63;;;15.50;98.70;;;;;;5035127;28;20080;-45
2022/08/27 05:30:35;;;;;;;7.95;3.90;;;15.50;98.70;;;;;;5034854;28;20139;-45
2022/08/27 05:33:02;;;;;;;10.23;4.72;;;15.50;98.70;;;;;;5032603;28;20050;-49
2022/08/27 05:35:30;;;;;;;9.55;3.60;;;15.50;98.80;;;;;;5013807;28;20155;-50
2022/08/27 05:37:58;;;;;;;12.95;4.93;;;15.50;98.80;;;;;;5033967;28;20525;-48
2022/08/27 05:40:25;;;;;;;5.72;3.40;;;15.50;98.90;;;;;;5017569;28;20490;-47
2022/08/27 05:42:52;;;;;;;9.32;3.80;;;15.40;98.90;;;;;;5017311;28;20045;-44
2022/08/27 05:45:19;;;;;;;10.77;3.85;;;15.40;98.90;;;;;;5033976;28;20100;-46
2022/08/27 05:47:45;;;;;;;8.68;3.67;;;15.50;98.90;;;;;;5034595;28;20136;-48
2022/08/27 05:50:12;;;;;;;11.38;4.25;;;15.50;99.10;;;;;;5033290;28;20050;-51
2022/08/27 05:52:39;;;;;;;8.60;3.50;;;15.50;99.20;;;;;;5034957;28;20462;-47
2022/08/27 05:55:08;;;;;;;8.18;3.60;;;15.40;99.20;;;;;;5001732;28;20134;-48
2022/08/27 05:57:35;;;;;;;8.50;4.00;;;15.50;99.60;;;;;;4997559;28;20054;-50
2022/08/27 06:02:47;;;;;;;9.40;4.03;;;15.60;99.40;;;;;;5016898;28;20057;-50
2022/08/27 06:05:13;;;;;;;7.82;3.90;;;15.60;99.50;;;;;;5033915;28;20057;-46
2022/08/27 06:07:40;;;;;;;12.52;3.85;;;15.70;99.50;;;;;;5032934;28;20142;-45
2022/08/27 06:10:10;;;;;;;8.20;3.67;;;15.70;99.40;;;;;;5016731;28;20128;-46
2022/08/27 06:12:36;;;;;;;8.73;3.55;;;15.70;99.40;;;;;;5034297;28;20085;-49
2022/08/27 06:15:03;;;;;;;6.95;3.90;;;15.70;99.10;;;;;;5033412;28;20139;-48
2022/08/27 06:17:30;;;;;;;12.20;3.80;;;15.90;99.30;;;;;;5034081;28;20501;-46
2022/08/27 06:19:57;;;;;;;9.43;3.70;;;16.00;99.60;;;;;;5034396;28;20115;-46
2022/08/27 06:22:24;;;;;;;9.15;3.65;;;16.10;99.20;;;;;;5016770;28;20132;-46
2022/08/27 06:24:51;;;;;;;8.65;3.85;;;16.20;99.10;;;;;;5016123;28;20132;-51
2022/08/27 06:27:19;;;;;;;11.32;3.72;;;16.30;99.20;;;;;;5016436;28;20132;-46
2022/08/27 06:29:46;;;;;;;16.58;3.83;;;16.40;99.30;;;;;;5025630;28;20045;-47
2022/08/27 06:32:13;;;;;;;8.60;3.90;;;16.40;99.30;;;;;;5030996;28;20067;-48
2022/08/27 06:34:40;;;;;;;6.70;3.83;;;16.40;99.30;;;;;;5031636;28;20096;-49
2022/08/27 06:37:07;;;;;;;6.57;3.28;;;16.50;99.40;;;;;;5033553;28;20088;-48
2022/08/27 06:39:35;;;;;;;7.20;3.03;;;16.60;99.40;;;;;;5015974;28;20050;-46
2022/08/27 06:42:01;;;;;;;7.40;3.60;;;16.60;99.20;;;;;;5033459;28;20057;-50
2022/08/27 06:44:30;;;;;;;8.50;3.13;;;16.70;99.20;;;;;;5031640;28;20052;-49
2022/08/27 06:46:56;;;;;;;6.90;3.08;;;16.70;99.20;;;;;;5037719;28;20062;-51
2022/08/27 06:49:23;;;;;;;7.13;3.25;;;16.80;99.10;;;;;;5035191;28;20136;-46
2022/08/27 06:51:50;;;;;;;7.13;2.67;;;16.90;99.10;;;;;;5035033;28;20061;-49
2022/08/27 06:54:18;;;;;;;7.13;3.10;;;16.90;99.10;;;;;;5018590;28;20080;-48
2022/08/27 06:56:45;;;;;;;6.95;3.13;;;17.10;99.10;;;;;;5032419;28;20704;-44
2022/08/27 06:59:14;;;;;;;6.63;3.05;;;17.20;99.00;;;;;;5031890;28;20049;-49
2022/08/27 07:01:44;;;;;;;7.95;2.80;;;17.20;99.10;;;;;;5019896;28;20067;-46
2022/08/27 07:04:12;;;;;;;8.15;3.10;;;17.30;99.20;;;;;;5037041;28;20101;-46
2022/08/27 07:06:39;;;;;;;14.63;2.83;;;17.40;99.20;;;;;;5033043;28;20057;-46
2022/08/27 07:09:06;;;;;;;9.82;3.15;;;17.50;99.00;;;;;;5032583;28;20365;-49
2022/08/27 07:11:33;;;;;;;7.53;2.42;;;17.60;99.00;;;;;;5014887;28;20067;-48
2022/08/27 07:14:00;;;;;;;8.27;3.17;;;17.70;99.00;;;;;;5031612;28;20140;-48
2022/08/27 07:16:27;;;;;;;10.38;2.40;;;17.80;99.00;;;;;;5031273;28;20080;-50
2022/08/27 07:18:56;;;;;;;6.13;2.42;;;17.80;98.90;;;;;;5032353;28;20127;-51
2022/08/27 07:21:23;;;;;;;7.05;2.50;;;18.00;98.90;;;;;;5014770;28;20084;-49
2022/08/27 07:23:51;;;;;;;10.80;2.72;;;18.10;98.80;;;;;;5014732;28;20128;-46
2022/08/27 07:26:18;;;;;;;6.70;2.35;;;18.20;98.80;;;;;;5034626;28;20128;-50
2022/08/27 07:28:45;;;;;;;11.75;2.78;;;18.30;98.70;;;;;;5028178;28;20055;-44
2022/08/27 07:31:14;;;;;;;10.70;2.60;;;18.40;98.60;;;;;;5022250;28;20482;-47
2022/08/27 07:33:40;;;;;;;4.93;2.15;;;18.60;98.70;;;;;;5014402;28;20052;-48
2022/08/27 07:36:09;;;;;;;5.93;2.10;;;18.80;98.30;;;;;;5030519;28;20120;-47
2022/08/27 07:38:36;;;;;;;10.60;2.20;;;19.10;98.30;;;;;;5014740;28;20045;-47
2022/08/27 07:41:04;;;;;;;10.35;1.90;;;19.30;97.90;;;;;;5032460;28;20404;-45
2022/08/27 07:46:15;;;;;;;6.38;2.13;;;19.70;97.10;;;;;;5029929;28;20053;-51
2022/08/27 07:48:42;;;;;;;10.63;2.00;;;19.80;96.90;;;;;;5031960;28;20056;-47
2022/08/27 07:51:16;;;;;;;6.55;1.73;;;19.80;96.70;;;;;;5032526;28;20053;-51
2022/08/27 07:53:43;;;;;;;6.28;1.45;;;19.90;96.50;;;;;;5015075;28;20049;-49
2022/08/27 07:56:09;;;;;;;8.02;2.13;;;19.90;96.40;;;;;;5029915;28;20059;-45
2022/08/27 07:58:36;;;;;;;8.75;1.60;;;20.00;96.30;;;;;;5032253;28;20552;-51
2022/08/27 08:01:03;;;;;;;14.77;1.80;;;20.10;95.90;;;;;;5032488;28;20088;-51
2022/08/27 08:03:30;;;;;;;7.53;1.35;;;20.20;95.90;;;;;;5014305;28;20140;-45
2022/08/27 08:05:57;;;;;;;8.68;2.03;;;20.20;95.80;;;;;;5029817;28;20045;-45
2022/08/27 08:08:25;;;;;;;4.60;1.40;;;20.40;95.80;;;;;;5031769;28;20053;-48
2022/08/27 08:10:51;;;;;;;6.28;1.98;;;20.50;95.80;;;;;;5031045;28;20050;-50
2022/08/27 08:13:18;;;;;;;7.07;1.52;;;20.60;95.60;;;;;;5031514;28;20055;-51
2022/08/27 08:15:45;;;;;;;10.30;1.70;;;20.80;95.40;;;;;;5013305;28;20072;-42
2022/08/27 08:18:12;;;;;;;10.68;1.73;;;21.00;94.70;;;;;;5031823;28;20045;-48
2022/08/27 08:20:39;;;;;;;8.93;1.95;;;21.00;94.40;;;;;;5031533;28;20152;-45
2022/08/27 08:23:06;;;;;;;7.40;1.88;;;21.20;94.50;;;;;;5013130;28;20084;-47
2022/08/27 08:25:34;;;;;;;6.55;1.75;;;21.30;94.50;;;;;;5012415;28;21740;-48
2022/08/27 08:28:01;;;;;;;10.75;2.00;;;21.40;93.90;;;;;;5012182;28;20488;-49
2022/08/27 08:30:27;;;;;;;11.68;2.20;;;21.50;93.60;;;;;;5031605;28;20136;-52
2022/08/27 08:32:54;;;;;;;7.88;1.73;;;21.70;93.40;;;;;;5013762;28;20080;-48
2022/08/27 08:35:23;;;;;;;6.72;1.73;;;21.70;93.20;;;;;;5031234;28;21673;-49
2022/08/27 08:37:49;;;;;;;11.55;1.90;;;21.70;93.10;;;;;;5031073;28;20107;-48
2022/08/27 08:40:23;;;;;;;8.98;2.20;;;21.70;93.20;;;;;;5030441;28;20126;-50
2022/08/27 08:42:52;;;;;;;6.70;1.58;;;21.70;92.90;;;;;;5029936;28;20053;-49
2022/08/27 08:45:23;;;;;;;7.53;1.77;;;21.70;92.50;;;;;;5014154;28;20088;-49
2022/08/27 08:47:52;;;;;;;7.57;1.67;;;21.70;92.30;;;;;;5013607;28;20111;-50
2022/08/27 08:50:20;;;;;;;10.52;1.88;;;21.80;92.30;;;;;;5034827;28;20045;-50
2022/08/27 08:52:50;;;;;;;8.18;1.90;;;21.80;92.10;;;;;;5051551;28;20057;-47
2022/08/27 08:55:28;;;;;;;7.47;1.70;;;21.70;92.10;;;;;;5039696;28;20077;-47
2022/08/27 08:58:04;;;;;;;8.38;1.58;;;21.70;92.10;;;;;;5032016;28;20057;-46
2022/08/27 09:00:31;;;;;;;10.50;1.85;;;21.70;92.20;;;;;;5009873;28;20074;-49
2022/08/27 09:02:57;;;;;;;8.93;2.10;;;21.70;92.50;;;;;;5030971;28;20053;-49
2022/08/27 09:05:25;;;;;;;9.80;2.03;;;21.70;92.10;;;;;;5000363;28;20058;-51
2022/08/27 09:07:56;;;;;;;6.38;1.55;;;21.70;92.20;;;;;;5028483;28;20046;-49
2022/08/27 09:10:26;;;;;;;10.50;2.22;;;21.90;92.30;;;;;;5017870;28;20081;-49
2022/08/27 09:12:53;;;;;;;9.80;2.13;;;22.20;91.80;;;;;;5016756;28;20107;-47
2022/08/27 09:15:22;;;;;;;10.90;2.20;;;22.30;91.60;;;;;;5035175;28;20061;-46
2022/08/27 09:17:49;;;;;;;9.13;1.77;;;22.50;91.30;;;;;;5034076;28;20052;-50
2022/08/27 09:20:18;;;;;;;12.85;1.77;;;22.50;91.20;;;;;;5017523;28;20478;-46
2022/08/27 09:22:48;;;;;;;9.77;1.60;;;22.50;91.40;;;;;;5033529;28;20080;-47
2022/08/27 09:25:17;;;;;;;8.52;1.90;;;22.60;90.90;;;;;;5025221;28;20414;-46
2022/08/27 09:27:44;;;;;;;9.27;1.60;;;22.50;90.60;;;;;;5033221;28;20087;-50
2022/08/27 09:30:12;;;;;;;10.75;1.92;;;22.50;90.50;;;;;;5014607;28;20045;-48
2022/08/27 09:32:40;;;;;;;7.25;1.67;;;22.50;90.40;;;;;;5033933;28;20133;-50
2022/08/27 09:35:10;;;;;;;9.90;1.55;;;22.50;90.40;;;;;;5015127;28;20059;-46
2022/08/27 09:37:40;;;;;;;5.72;1.60;;;22.50;90.30;;;;;;5033363;28;20533;-50
2022/08/27 09:40:10;;;;;;;10.23;1.80;;;22.50;90.10;;;;;;5032425;28;20136;-51
2022/08/27 09:42:38;;;;;;;12.27;1.88;;;22.50;89.90;;;;;;5032414;28;20072;-47
2022/08/27 09:45:09;;;;;;;6.72;1.67;;;22.40;89.70;;;;;;5012009;28;20046;-48
2022/08/27 09:47:43;;;;;;;8.23;1.77;;;22.40;89.70;;;;;;5032016;28;20498;-48
2022/08/27 09:50:10;;;;;;;8.02;1.50;;;22.40;89.80;;;;;;5031682;28;20375;-48
2022/08/27 09:52:45;;;;;;;11.10;1.63;;;22.40;90.00;;;;;;5033757;28;20099;-45
2022/08/27 09:55:11;;;;;;;5.60;1.38;;;22.40;89.10;;;;;;5031673;28;20080;-49
2022/08/27 09:57:39;;;;;;;6.78;1.40;;;22.40;88.50;;;;;;5022788;28;20528;-49
2022/08/27 10:00:08;;;;;;;11.32;1.80;;;22.40;88.10;;;;;;5022978;28;20436;-46
2022/08/27 10:02:35;;;;;;;6.53;1.73;;;22.40;88.20;;;;;;5015340;28;20052;-45
2022/08/27 10:05:13;;;;;;;5.97;1.35;;;22.40;86.40;;;;;;5029323;28;20137;-49
2022/08/27 10:07:43;;;;;;;7.22;2.00;;;22.40;86.20;;;;;;5007316;28;20553;-47
2022/08/27 10:10:13;;;;;;;5.05;1.48;;;22.40;86.30;;;;;;5029992;28;20073;-46
2022/08/27 10:12:46;;;;;;;7.15;1.67;;;22.40;86.60;;;;;;5014988;28;20468;-42
2022/08/27 10:15:13;;;;;;;8.65;1.65;;;22.50;86.30;;;;;;5028294;28;20132;-50
2022/08/27 10:17:45;;;;;;;7.10;2.03;;;22.60;86.10;;;;;;5044870;28;20083;-48
2022/08/27 10:20:17;;;;;;;10.05;1.88;;;22.80;85.60;;;;;;5028516;28;20549;-50
2022/08/27 10:22:49;;;;;;;5.72;1.58;;;22.80;85.50;;;;;;5015595;28;20045;-44
2022/08/27 10:25:22;;;;;;;6.35;1.35;;;22.90;84.70;;;;;;5028756;28;20076;-49
2022/08/27 10:27:54;;;;;;;7.55;1.60;;;22.90;84.70;;;;;;5024124;28;20077;-49
2022/08/27 10:30:23;;;;;;;8.10;1.38;;;23.10;85.30;;;;;;5016319;28;20136;-47
2022/08/27 10:33:03;;;;;;;5.13;1.45;;;23.10;83.90;;;;;;5016450;28;20050;-46
2022/08/27 10:35:34;;;;;;;8.18;1.75;;;23.10;83.30;;;;;;5030233;28;20430;-47
2022/08/27 10:38:07;;;;;;;6.65;1.25;;;23.20;82.40;;;;;;5013823;28;20132;-50
2022/08/27 10:40:37;;;;;;;8.38;1.67;;;23.20;82.20;;;;;;5026293;28;20049;-45
2022/08/27 10:43:19;;;;;;;5.13;1.50;;;23.30;82.20;;;;;;5032196;28;20183;-46
2022/08/27 10:45:47;;;;;;;7.50;1.40;;;23.40;82.60;;;;;;5030068;28;20062;-47
2022/08/27 10:48:23;;;;;;;8.13;1.75;;;23.50;82.60;;;;;;5024574;28;20132;-48
2022/08/27 10:50:54;;;;;;;7.00;1.50;;;23.40;82.40;;;;;;5029599;28;20131;-49
2022/08/27 10:53:26;;;;;;;5.53;1.73;;;23.30;82.10;;;;;;5029723;28;20053;-48
2022/08/27 10:55:56;;;;;;;10.48;1.73;;;23.30;82.00;;;;;;5011767;28;20473;-47
2022/08/27 10:58:29;;;;;;;9.43;1.70;;;23.20;81.60;;;;;;5032321;28;20412;-50
2022/08/27 11:01:00;;;;;;;9.73;1.83;;;23.10;82.10;;;;;;5032369;28;20508;-50
2022/08/27 11:03:27;;;;;;;;;;;23.10;82.10;;;;;;5032291;28;20151;-46
2022/08/27 11:05:55;;;;;;;13.45;2.00;;;23.00;82.90;;;;;;5032992;28;20014;-50
2022/08/27 11:08:23;;;;;;;6.30;1.52;;;23.00;82.50;;;;;;5032017;28;20144;-49
2022/08/27 11:10:53;;;;;;;9.00;1.65;;;23.00;81.80;;;;;;5043367;28;20048;-46
2022/08/27 11:13:23;;;;;;;5.47;1.38;;;23.10;82.20;;;;;;5029700;28;20076;-51
2022/08/27 11:15:50;;;;;;;7.32;1.88;;;23.10;81.90;;;;;;5032467;28;20077;-47
2022/08/27 11:18:20;;;;;;;8.40;1.35;;;23.30;82.40;;;;;;5029587;28;20041;-50
2022/08/27 11:20:49;;;;;;;11.73;2.17;;;23.40;81.40;;;;;;5030569;28;20144;-46
2022/08/27 11:23:18;;;;;;;9.52;1.50;;;23.40;81.10;;;;;;5027170;28;20495;-50
2022/08/27 11:25:49;;;;;;;8.23;1.50;;;23.50;81.80;;;;;;5030033;28;20140;-51
2022/08/27 11:28:16;;;;;;;9.82;1.58;;;23.60;81.10;;;;;;5029688;28;20049;-47
2022/08/27 11:30:52;;;;;;;6.65;1.80;;;23.60;81.60;;;;;;5031296;28;20217;-50
2022/08/27 11:33:24;;;;;;;7.35;1.65;;;23.60;81.20;;;;;;5030478;28;20057;-49
2022/08/27 11:36:14;;;;;;;6.05;1.50;;;23.60;81.30;;;;;;5032259;28;20489;-46
2022/08/27 11:38:48;;;;;;;7.85;1.73;;;23.60;81.30;;;;;;5013847;28;20088;-47
2022/08/27 11:41:54;;;;;;;6.30;1.35;;;23.60;81.30;;;;;;5029077;28;20037;-46
2022/08/27 11:44:22;;;;;;;8.32;1.60;;;23.70;81.00;;;;;;5008453;28;20057;-51
2022/08/27 11:46:50;;;;;;;8.13;1.75;;;23.70;81.20;;;;;;5014917;28;20517;-51
2022/08/27 11:49:29;;;;;;;7.28;2.13;;;23.80;80.30;;;;;;5031412;28;20053;-48
2022/08/27 11:51:58;;;;;;;8.90;1.52;;;24.00;79.40;;;;;;5029374;28;20504;-48
2022/08/27 11:54:28;;;;;;;5.57;1.40;;;24.30;77.30;;;;;;5013980;28;20081;-46
2022/08/27 11:56:55;;;;;;;8.35;2.10;;;24.40;77.10;;;;;;5029503;28;20513;-48
2022/08/27 11:59:23;;;;;;;6.65;1.33;;;24.50;75.80;;;;;;5031112;28;20521;-48
2022/08/27 12:01:51;;;;;;;5.88;1.40;;;24.50;75.70;;;;;;5012596;28;20053;-44
2022/08/27 12:04:23;;;;;;;9.10;1.95;;;24.60;76.70;;;;;;5030856;28;20049;-51
2022/08/27 12:06:51;;;;;;;7.68;1.65;;;24.60;76.10;;;;;;5014409;28;20045;-48
2022/08/27 12:09:19;;;;;;;7.35;1.25;;;24.80;76.20;;;;;;5014160;28;20052;-50
2022/08/27 12:11:51;;;;;;;9.85;1.70;;;24.90;75.40;;;;;;5011410;28;20482;-50
2022/08/27 12:14:27;;;;;;;5.22;1.20;;;24.90;75.40;;;;;;5012623;28;20454;-51
2022/08/27 12:16:56;;;;;;;12.02;1.67;;;24.90;74.70;;;;;;5028716;28;20115;-47
2022/08/27 12:19:31;;;;;;;7.20;1.63;;;24.90;74.70;;;;;;5024162;28;20111;-52
2022/08/27 12:22:13;;;;;;;8.57;1.65;;;25.00;74.90;;;;;;5010803;28;20050;-38
2022/08/27 12:24:49;;;;;;;10.02;1.50;;;25.10;75.30;;;;;;5024262;28;20128;-48
2022/08/27 12:27:27;;;;;;;10.13;1.10;;;25.40;72.00;;;;;;5030726;28;20064;-50
2022/08/27 12:29:55;;;;;;;8.40;1.70;;;25.50;73.70;;;;;;5030048;28;20057;-49
2022/08/27 12:32:26;;;;;;;7.13;1.30;;;25.70;72.30;;;;;;5030996;28;20090;-48
2022/08/27 12:35:01;;;;;;;4.72;1.20;;;25.70;71.60;;;;;;5029712;28;20123;-50
2022/08/27 12:37:32;;;;;;;9.07;1.33;;;25.40;72.80;;;;;;5030527;28;20053;-49
2022/08/27 12:40:00;;;;;;;4.43;1.27;;;25.20;72.80;;;;;;5030692;28;20387;-51
2022/08/27 12:42:28;;;;;;;8.63;1.60;;;24.90;73.20;;;;;;5031352;28;20046;-50
2022/08/27 12:44:55;;;;;;;7.97;1.60;;;24.90;74.30;;;;;;5017222;28;20093;-49
2022/08/27 12:47:22;;;;;;;7.82;1.48;;;24.90;74.10;;;;;;5035234;28;20049;-49
2022/08/27 12:49:51;;;;;;;7.38;1.60;;;24.90;74.90;;;;;;5035263;28;20049;-51
2022/08/27 12:52:24;;;;;;;6.05;1.40;;;24.90;74.20;;;;;;5017659;28;20049;-51
2022/08/27 12:54:57;;;;;;;8.98;1.50;;;24.90;73.70;;;;;;5034347;28;20390;-51
2022/08/27 12:57:25;;;;;;;6.07;1.60;;;24.80;72.60;;;;;;5035653;28;20054;-50
2022/08/27 13:00:06;;;;;;;7.38;1.20;;;24.80;73.00;;;;;;5017825;28;20085;-47
2022/08/27 13:03:06;;;;;;;7.78;1.45;;;25.00;72.40;;;;;;5032835;28;20049;-47